<?xml version="1.0" encoding="UTF-8" standalone="no" ?>
<gpx xmlns="http://www.topografix.com/GPX/1/1" xmlns:xsi="http://www.w3.org/2001/XMLSchema-instance" xsi:schemaLocation="http://www.topografix.com/GPX/1/1 http://www.topografix.com/GPX/1/1/gpx.xsd" version="1.1" creator="VisuGPX - https://www.visugpx.com">
  <metadata>
    <name>Lac de Bastampe, 2019m, depuis Agnouède.</name>
  </metadata>
  <trk>
    <name><![CDATA[Lac de Bastampe, 2019m, depuis Agnouède.]]></name>
    <trkseg>
      <trkpt lat="42.85831" lon="-0.01478">
        <ele>1020</ele>
        <time>2022-05-26T08:59:36+02:00</time>
      </trkpt>
      <trkpt lat="42.85826" lon="-0.01513">
        <ele>1024</ele>
        <time>2022-05-26T09:00:01+02:00</time>
      </trkpt>
      <trkpt lat="42.85804" lon="-0.01505">
        <ele>1029</ele>
        <time>2022-05-26T09:00:22+02:00</time>
      </trkpt>
      <trkpt lat="42.85781" lon="-0.01505">
        <ele>1034</ele>
        <time>2022-05-26T09:00:49+02:00</time>
      </trkpt>
      <trkpt lat="42.85758" lon="-0.01507">
        <ele>1041</ele>
        <time>2022-05-26T09:01:10+02:00</time>
      </trkpt>
      <trkpt lat="42.85762" lon="-0.01537">
        <ele>1045</ele>
        <time>2022-05-26T09:01:24+02:00</time>
      </trkpt>
      <trkpt lat="42.8574" lon="-0.01542">
        <ele>1054</ele>
        <time>2022-05-26T09:02:18+02:00</time>
      </trkpt>
      <trkpt lat="42.85724" lon="-0.01517">
        <ele>1051</ele>
        <time>2022-05-26T09:02:38+02:00</time>
      </trkpt>
      <trkpt lat="42.85703" lon="-0.01503">
        <ele>1049</ele>
        <time>2022-05-26T09:02:56+02:00</time>
      </trkpt>
      <trkpt lat="42.85681" lon="-0.01515">
        <ele>1053</ele>
        <time>2022-05-26T09:03:14+02:00</time>
      </trkpt>
      <trkpt lat="42.85661" lon="-0.01532">
        <ele>1060</ele>
        <time>2022-05-26T09:03:42+02:00</time>
      </trkpt>
      <trkpt lat="42.8564" lon="-0.01519">
        <ele>1058</ele>
        <time>2022-05-26T09:03:57+02:00</time>
      </trkpt>
      <trkpt lat="42.85616" lon="-0.01508">
        <ele>1059</ele>
        <time>2022-05-26T09:04:13+02:00</time>
      </trkpt>
      <trkpt lat="42.85592" lon="-0.01504">
        <ele>1061</ele>
        <time>2022-05-26T09:04:45+02:00</time>
      </trkpt>
      <trkpt lat="42.85574" lon="-0.01526">
        <ele>1068</ele>
        <time>2022-05-26T09:05:16+02:00</time>
      </trkpt>
      <trkpt lat="42.85574" lon="-0.01558">
        <ele>1078</ele>
        <time>2022-05-26T09:05:54+02:00</time>
      </trkpt>
      <trkpt lat="42.85577" lon="-0.0159">
        <ele>1089</ele>
        <time>2022-05-26T09:06:30+02:00</time>
      </trkpt>
      <trkpt lat="42.85552" lon="-0.01584">
        <ele>1096</ele>
        <time>2022-05-26T09:07:06+02:00</time>
      </trkpt>
      <trkpt lat="42.85527" lon="-0.01587">
        <ele>1105</ele>
        <time>2022-05-26T09:07:56+02:00</time>
      </trkpt>
      <trkpt lat="42.8551" lon="-0.01565">
        <ele>1100</ele>
        <time>2022-05-26T09:08:11+02:00</time>
      </trkpt>
      <trkpt lat="42.85485" lon="-0.01562">
        <ele>1104</ele>
        <time>2022-05-26T09:08:38+02:00</time>
      </trkpt>
      <trkpt lat="42.85462" lon="-0.01566">
        <ele>1109</ele>
        <time>2022-05-26T09:09:08+02:00</time>
      </trkpt>
      <trkpt lat="42.85437" lon="-0.01561">
        <ele>1111</ele>
        <time>2022-05-26T09:09:27+02:00</time>
      </trkpt>
      <trkpt lat="42.85413" lon="-0.01553">
        <ele>1111</ele>
        <time>2022-05-26T09:09:35+02:00</time>
      </trkpt>
      <trkpt lat="42.85386" lon="-0.01561">
        <ele>1117</ele>
        <time>2022-05-26T09:09:50+02:00</time>
      </trkpt>
      <trkpt lat="42.85363" lon="-0.01557">
        <ele>1117</ele>
        <time>2022-05-26T09:10:13+02:00</time>
      </trkpt>
      <trkpt lat="42.8534" lon="-0.0157">
        <ele>1125</ele>
        <time>2022-05-26T09:10:45+02:00</time>
      </trkpt>
      <trkpt lat="42.85315" lon="-0.01575">
        <ele>1129</ele>
        <time>2022-05-26T09:11:05+02:00</time>
      </trkpt>
      <trkpt lat="42.85291" lon="-0.0158">
        <ele>1135</ele>
        <time>2022-05-26T09:11:35+02:00</time>
      </trkpt>
      <trkpt lat="42.85267" lon="-0.01573">
        <ele>1139</ele>
        <time>2022-05-26T09:12:14+02:00</time>
      </trkpt>
      <trkpt lat="42.85245" lon="-0.01555">
        <ele>1140</ele>
        <time>2022-05-26T09:12:26+02:00</time>
      </trkpt>
      <trkpt lat="42.85218" lon="-0.0155">
        <ele>1146</ele>
        <time>2022-05-26T09:12:50+02:00</time>
      </trkpt>
      <trkpt lat="42.85195" lon="-0.0154">
        <ele>1148</ele>
        <time>2022-05-26T09:13:12+02:00</time>
      </trkpt>
      <trkpt lat="42.85196" lon="-0.01571">
        <ele>1155</ele>
        <time>2022-05-26T09:14:38+02:00</time>
      </trkpt>
      <trkpt lat="42.85174" lon="-0.01567">
        <ele>1159</ele>
        <time>2022-05-26T09:15:27+02:00</time>
      </trkpt>
      <trkpt lat="42.85183" lon="-0.01597">
        <ele>1164</ele>
        <time>2022-05-26T09:16:46+02:00</time>
      </trkpt>
      <trkpt lat="42.8519" lon="-0.01626">
        <ele>1170</ele>
        <time>2022-05-26T09:17:07+02:00</time>
      </trkpt>
      <trkpt lat="42.85213" lon="-0.01632">
        <ele>1167</ele>
        <time>2022-05-26T09:17:26+02:00</time>
      </trkpt>
      <trkpt lat="42.85235" lon="-0.01638">
        <ele>1167</ele>
        <time>2022-05-26T09:17:53+02:00</time>
      </trkpt>
      <trkpt lat="42.85256" lon="-0.01654">
        <ele>1175</ele>
        <time>2022-05-26T09:18:20+02:00</time>
      </trkpt>
      <trkpt lat="42.85279" lon="-0.01659">
        <ele>1177</ele>
        <time>2022-05-26T09:19:08+02:00</time>
      </trkpt>
      <trkpt lat="42.85297" lon="-0.01677">
        <ele>1188</ele>
        <time>2022-05-26T09:19:29+02:00</time>
      </trkpt>
      <trkpt lat="42.85319" lon="-0.01672">
        <ele>1186</ele>
        <time>2022-05-26T09:21:21+02:00</time>
      </trkpt>
      <trkpt lat="42.85341" lon="-0.01686">
        <ele>1193</ele>
        <time>2022-05-26T09:21:39+02:00</time>
      </trkpt>
      <trkpt lat="42.85365" lon="-0.01686">
        <ele>1194</ele>
        <time>2022-05-26T09:22:04+02:00</time>
      </trkpt>
      <trkpt lat="42.8538" lon="-0.0171">
        <ele>1204</ele>
        <time>2022-05-26T09:22:32+02:00</time>
      </trkpt>
      <trkpt lat="42.85397" lon="-0.01732">
        <ele>1209</ele>
        <time>2022-05-26T09:22:58+02:00</time>
      </trkpt>
      <trkpt lat="42.85415" lon="-0.01753">
        <ele>1210</ele>
        <time>2022-05-26T09:23:23+02:00</time>
      </trkpt>
      <trkpt lat="42.85431" lon="-0.01779">
        <ele>1209</ele>
        <time>2022-05-26T09:23:39+02:00</time>
      </trkpt>
      <trkpt lat="42.85422" lon="-0.01808">
        <ele>1213</ele>
        <time>2022-05-26T09:24:43+02:00</time>
      </trkpt>
      <trkpt lat="42.85406" lon="-0.01831">
        <ele>1217</ele>
        <time>2022-05-26T09:25:03+02:00</time>
      </trkpt>
      <trkpt lat="42.85382" lon="-0.01835">
        <ele>1219</ele>
        <time>2022-05-26T09:25:26+02:00</time>
      </trkpt>
      <trkpt lat="42.85358" lon="-0.01831">
        <ele>1220</ele>
        <time>2022-05-26T09:26:07+02:00</time>
      </trkpt>
      <trkpt lat="42.85331" lon="-0.01827">
        <ele>1223</ele>
        <time>2022-05-26T09:26:14+02:00</time>
      </trkpt>
      <trkpt lat="42.85306" lon="-0.01831">
        <ele>1232</ele>
        <time>2022-05-26T09:26:25+02:00</time>
      </trkpt>
      <trkpt lat="42.85283" lon="-0.01828">
        <ele>1236</ele>
        <time>2022-05-26T09:26:58+02:00</time>
      </trkpt>
      <trkpt lat="42.85259" lon="-0.0183">
        <ele>1241</ele>
        <time>2022-05-26T09:27:32+02:00</time>
      </trkpt>
      <trkpt lat="42.85237" lon="-0.01834">
        <ele>1248</ele>
        <time>2022-05-26T09:27:58+02:00</time>
      </trkpt>
      <trkpt lat="42.85213" lon="-0.01827">
        <ele>1252</ele>
        <time>2022-05-26T09:28:34+02:00</time>
      </trkpt>
      <trkpt lat="42.85191" lon="-0.01821">
        <ele>1257</ele>
        <time>2022-05-26T09:29:33+02:00</time>
      </trkpt>
      <trkpt lat="42.85167" lon="-0.01827">
        <ele>1268</ele>
        <time>2022-05-26T09:30:09+02:00</time>
      </trkpt>
      <trkpt lat="42.85143" lon="-0.01822">
        <ele>1273</ele>
        <time>2022-05-26T09:30:24+02:00</time>
      </trkpt>
      <trkpt lat="42.85119" lon="-0.01818">
        <ele>1276</ele>
        <time>2022-05-26T09:30:53+02:00</time>
      </trkpt>
      <trkpt lat="42.85097" lon="-0.01811">
        <ele>1276</ele>
        <time>2022-05-26T09:31:17+02:00</time>
      </trkpt>
      <trkpt lat="42.85073" lon="-0.01816">
        <ele>1281</ele>
        <time>2022-05-26T09:31:48+02:00</time>
      </trkpt>
      <trkpt lat="42.85049" lon="-0.01817">
        <ele>1282</ele>
        <time>2022-05-26T09:32:17+02:00</time>
      </trkpt>
      <trkpt lat="42.85026" lon="-0.01809">
        <ele>1277</ele>
        <time>2022-05-26T09:33:52+02:00</time>
      </trkpt>
      <trkpt lat="42.85006" lon="-0.01825">
        <ele>1287</ele>
        <time>2022-05-26T09:34:20+02:00</time>
      </trkpt>
      <trkpt lat="42.84984" lon="-0.01836">
        <ele>1296</ele>
        <time>2022-05-26T09:34:57+02:00</time>
      </trkpt>
      <trkpt lat="42.84962" lon="-0.01822">
        <ele>1292</ele>
        <time>2022-05-26T09:35:11+02:00</time>
      </trkpt>
      <trkpt lat="42.84937" lon="-0.01827">
        <ele>1298</ele>
        <time>2022-05-26T09:35:38+02:00</time>
      </trkpt>
      <trkpt lat="42.84915" lon="-0.01824">
        <ele>1297</ele>
        <time>2022-05-26T09:35:54+02:00</time>
      </trkpt>
      <trkpt lat="42.84901" lon="-0.01848">
        <ele>1309</ele>
        <time>2022-05-26T09:37:03+02:00</time>
      </trkpt>
      <trkpt lat="42.84876" lon="-0.01853">
        <ele>1311</ele>
        <time>2022-05-26T09:37:25+02:00</time>
      </trkpt>
      <trkpt lat="42.84854" lon="-0.01844">
        <ele>1305</ele>
        <time>2022-05-26T09:38:39+02:00</time>
      </trkpt>
      <trkpt lat="42.8484" lon="-0.0187">
        <ele>1316</ele>
        <time>2022-05-26T09:39:20+02:00</time>
      </trkpt>
      <trkpt lat="42.8482" lon="-0.0189">
        <ele>1322</ele>
        <time>2022-05-26T09:39:44+02:00</time>
      </trkpt>
      <trkpt lat="42.84794" lon="-0.0189">
        <ele>1323</ele>
        <time>2022-05-26T09:40:01+02:00</time>
      </trkpt>
      <trkpt lat="42.8477" lon="-0.01896">
        <ele>1329</ele>
        <time>2022-05-26T09:40:30+02:00</time>
      </trkpt>
      <trkpt lat="42.84746" lon="-0.01897">
        <ele>1331</ele>
        <time>2022-05-26T09:40:44+02:00</time>
      </trkpt>
      <trkpt lat="42.84725" lon="-0.01912">
        <ele>1339</ele>
        <time>2022-05-26T09:41:17+02:00</time>
      </trkpt>
      <trkpt lat="42.847" lon="-0.01915">
        <ele>1343</ele>
        <time>2022-05-26T09:41:37+02:00</time>
      </trkpt>
      <trkpt lat="42.84675" lon="-0.01906">
        <ele>1339</ele>
        <time>2022-05-26T09:42:24+02:00</time>
      </trkpt>
      <trkpt lat="42.84663" lon="-0.01931">
        <ele>1351</ele>
        <time>2022-05-26T09:43:44+02:00</time>
      </trkpt>
      <trkpt lat="42.84639" lon="-0.01942">
        <ele>1356</ele>
        <time>2022-05-26T09:44:12+02:00</time>
      </trkpt>
      <trkpt lat="42.84614" lon="-0.01946">
        <ele>1360</ele>
        <time>2022-05-26T09:44:34+02:00</time>
      </trkpt>
      <trkpt lat="42.846" lon="-0.0197">
        <ele>1371</ele>
        <time>2022-05-26T09:44:55+02:00</time>
      </trkpt>
      <trkpt lat="42.84577" lon="-0.01975">
        <ele>1379</ele>
        <time>2022-05-26T09:45:27+02:00</time>
      </trkpt>
      <trkpt lat="42.84555" lon="-0.0196">
        <ele>1379</ele>
        <time>2022-05-26T09:45:58+02:00</time>
      </trkpt>
      <trkpt lat="42.84532" lon="-0.01955">
        <ele>1378</ele>
        <time>2022-05-26T09:46:15+02:00</time>
      </trkpt>
      <trkpt lat="42.84513" lon="-0.01972">
        <ele>1387</ele>
        <time>2022-05-26T09:46:35+02:00</time>
      </trkpt>
      <trkpt lat="42.84489" lon="-0.01965">
        <ele>1384</ele>
        <time>2022-05-26T09:46:59+02:00</time>
      </trkpt>
      <trkpt lat="42.84466" lon="-0.01963">
        <ele>1387</ele>
        <time>2022-05-26T09:47:53+02:00</time>
      </trkpt>
      <trkpt lat="42.84442" lon="-0.01968">
        <ele>1401</ele>
        <time>2022-05-26T09:49:13+02:00</time>
      </trkpt>
      <trkpt lat="42.84419" lon="-0.01974">
        <ele>1411</ele>
        <time>2022-05-26T09:49:35+02:00</time>
      </trkpt>
      <trkpt lat="42.84395" lon="-0.01976">
        <ele>1416</ele>
        <time>2022-05-26T09:49:52+02:00</time>
      </trkpt>
      <trkpt lat="42.84371" lon="-0.01971">
        <ele>1416</ele>
        <time>2022-05-26T09:50:16+02:00</time>
      </trkpt>
      <trkpt lat="42.84347" lon="-0.01975">
        <ele>1418</ele>
        <time>2022-05-26T09:50:54+02:00</time>
      </trkpt>
      <trkpt lat="42.84329" lon="-0.01994">
        <ele>1426</ele>
        <time>2022-05-26T09:51:13+02:00</time>
      </trkpt>
      <trkpt lat="42.84304" lon="-0.02002">
        <ele>1428</ele>
        <time>2022-05-26T09:51:35+02:00</time>
      </trkpt>
      <trkpt lat="42.84281" lon="-0.02007">
        <ele>1430</ele>
        <time>2022-05-26T09:51:51+02:00</time>
      </trkpt>
      <trkpt lat="42.84254" lon="-0.02009">
        <ele>1437</ele>
        <time>2022-05-26T09:53:16+02:00</time>
      </trkpt>
      <trkpt lat="42.84233" lon="-0.02021">
        <ele>1446</ele>
        <time>2022-05-26T09:53:48+02:00</time>
      </trkpt>
      <trkpt lat="42.84217" lon="-0.02045">
        <ele>1455</ele>
        <time>2022-05-26T09:55:37+02:00</time>
      </trkpt>
      <trkpt lat="42.84194" lon="-0.02058">
        <ele>1460</ele>
        <time>2022-05-26T09:56:13+02:00</time>
      </trkpt>
      <trkpt lat="42.84172" lon="-0.02048">
        <ele>1453</ele>
        <time>2022-05-26T09:57:46+02:00</time>
      </trkpt>
      <trkpt lat="42.84147" lon="-0.02052">
        <ele>1448</ele>
        <time>2022-05-26T09:58:00+02:00</time>
      </trkpt>
      <trkpt lat="42.84136" lon="-0.02079">
        <ele>1460</ele>
        <time>2022-05-26T09:58:54+02:00</time>
      </trkpt>
      <trkpt lat="42.84118" lon="-0.02098">
        <ele>1463</ele>
        <time>2022-05-26T09:59:13+02:00</time>
      </trkpt>
      <trkpt lat="42.841" lon="-0.02121">
        <ele>1467</ele>
        <time>2022-05-26T09:59:30+02:00</time>
      </trkpt>
      <trkpt lat="42.8409" lon="-0.02149">
        <ele>1477</ele>
        <time>2022-05-26T09:59:56+02:00</time>
      </trkpt>
      <trkpt lat="42.84068" lon="-0.02168">
        <ele>1480</ele>
        <time>2022-05-26T10:00:25+02:00</time>
      </trkpt>
      <trkpt lat="42.84043" lon="-0.02175">
        <ele>1472</ele>
        <time>2022-05-26T10:00:53+02:00</time>
      </trkpt>
      <trkpt lat="42.84033" lon="-0.02203">
        <ele>1479</ele>
        <time>2022-05-26T10:02:58+02:00</time>
      </trkpt>
      <trkpt lat="42.84022" lon="-0.02233">
        <ele>1486</ele>
        <time>2022-05-26T10:03:23+02:00</time>
      </trkpt>
      <trkpt lat="42.84004" lon="-0.02256">
        <ele>1486</ele>
        <time>2022-05-26T10:03:44+02:00</time>
      </trkpt>
      <trkpt lat="42.83985" lon="-0.02281">
        <ele>1487</ele>
        <time>2022-05-26T10:04:01+02:00</time>
      </trkpt>
      <trkpt lat="42.83968" lon="-0.02305">
        <ele>1489</ele>
        <time>2022-05-26T10:04:24+02:00</time>
      </trkpt>
      <trkpt lat="42.83958" lon="-0.02335">
        <ele>1496</ele>
        <time>2022-05-26T10:04:42+02:00</time>
      </trkpt>
      <trkpt lat="42.83948" lon="-0.02365">
        <ele>1502</ele>
        <time>2022-05-26T10:05:04+02:00</time>
      </trkpt>
      <trkpt lat="42.83954" lon="-0.02394">
        <ele>1517</ele>
        <time>2022-05-26T10:06:03+02:00</time>
      </trkpt>
      <trkpt lat="42.83937" lon="-0.02419">
        <ele>1515</ele>
        <time>2022-05-26T10:07:23+02:00</time>
      </trkpt>
      <trkpt lat="42.8395" lon="-0.02446">
        <ele>1529</ele>
        <time>2022-05-26T10:09:07+02:00</time>
      </trkpt>
      <trkpt lat="42.83964" lon="-0.02471">
        <ele>1545</ele>
        <time>2022-05-26T10:10:58+02:00</time>
      </trkpt>
      <trkpt lat="42.83966" lon="-0.02504">
        <ele>1554</ele>
        <time>2022-05-26T10:11:22+02:00</time>
      </trkpt>
      <trkpt lat="42.83951" lon="-0.02529">
        <ele>1555</ele>
        <time>2022-05-26T10:12:05+02:00</time>
      </trkpt>
      <trkpt lat="42.83935" lon="-0.02554">
        <ele>1563</ele>
        <time>2022-05-26T10:12:28+02:00</time>
      </trkpt>
      <trkpt lat="42.83953" lon="-0.02572">
        <ele>1570</ele>
        <time>2022-05-26T10:16:38+02:00</time>
      </trkpt>
      <trkpt lat="42.83961" lon="-0.02603">
        <ele>1582</ele>
        <time>2022-05-26T10:17:27+02:00</time>
      </trkpt>
      <trkpt lat="42.8394" lon="-0.02614">
        <ele>1587</ele>
        <time>2022-05-26T10:18:35+02:00</time>
      </trkpt>
      <trkpt lat="42.83921" lon="-0.02633">
        <ele>1597</ele>
        <time>2022-05-26T10:18:59+02:00</time>
      </trkpt>
      <trkpt lat="42.83911" lon="-0.02663">
        <ele>1613</ele>
        <time>2022-05-26T10:21:36+02:00</time>
      </trkpt>
      <trkpt lat="42.83889" lon="-0.02653">
        <ele>1605</ele>
        <time>2022-05-26T10:22:17+02:00</time>
      </trkpt>
      <trkpt lat="42.83874" lon="-0.02688">
        <ele>1623</ele>
        <time>2022-05-26T10:23:33+02:00</time>
      </trkpt>
      <trkpt lat="42.83866" lon="-0.02717">
        <ele>1638</ele>
        <time>2022-05-26T10:24:37+02:00</time>
      </trkpt>
      <trkpt lat="42.83849" lon="-0.02737">
        <ele>1645</ele>
        <time>2022-05-26T10:25:27+02:00</time>
      </trkpt>
      <trkpt lat="42.83834" lon="-0.02764">
        <ele>1655</ele>
        <time>2022-05-26T10:26:12+02:00</time>
      </trkpt>
      <trkpt lat="42.83811" lon="-0.02765">
        <ele>1648</ele>
        <time>2022-05-26T10:27:12+02:00</time>
      </trkpt>
      <trkpt lat="42.83802" lon="-0.02796">
        <ele>1657</ele>
        <time>2022-05-26T10:27:41+02:00</time>
      </trkpt>
      <trkpt lat="42.83789" lon="-0.02822">
        <ele>1664</ele>
        <time>2022-05-26T10:28:13+02:00</time>
      </trkpt>
      <trkpt lat="42.83772" lon="-0.02845">
        <ele>1668</ele>
        <time>2022-05-26T10:28:58+02:00</time>
      </trkpt>
      <trkpt lat="42.83753" lon="-0.02863">
        <ele>1671</ele>
        <time>2022-05-26T10:29:28+02:00</time>
      </trkpt>
      <trkpt lat="42.83732" lon="-0.02878">
        <ele>1673</ele>
        <time>2022-05-26T10:29:47+02:00</time>
      </trkpt>
      <trkpt lat="42.83713" lon="-0.02896">
        <ele>1676</ele>
        <time>2022-05-26T10:30:27+02:00</time>
      </trkpt>
      <trkpt lat="42.8369" lon="-0.02903">
        <ele>1676</ele>
        <time>2022-05-26T10:30:51+02:00</time>
      </trkpt>
      <trkpt lat="42.83667" lon="-0.02907">
        <ele>1671</ele>
        <time>2022-05-26T10:31:18+02:00</time>
      </trkpt>
      <trkpt lat="42.8365" lon="-0.02931">
        <ele>1675</ele>
        <time>2022-05-26T10:32:31+02:00</time>
      </trkpt>
      <trkpt lat="42.8363" lon="-0.02947">
        <ele>1676</ele>
        <time>2022-05-26T10:32:47+02:00</time>
      </trkpt>
      <trkpt lat="42.83614" lon="-0.02973">
        <ele>1681</ele>
        <time>2022-05-26T10:33:07+02:00</time>
      </trkpt>
      <trkpt lat="42.83585" lon="-0.0297">
        <ele>1687</ele>
        <time>2022-05-26T10:33:42+02:00</time>
      </trkpt>
      <trkpt lat="42.83563" lon="-0.02978">
        <ele>1697</ele>
        <time>2022-05-26T10:34:18+02:00</time>
      </trkpt>
      <trkpt lat="42.83541" lon="-0.02989">
        <ele>1706</ele>
        <time>2022-05-26T10:35:20+02:00</time>
      </trkpt>
      <trkpt lat="42.83543" lon="-0.03022">
        <ele>1717</ele>
        <time>2022-05-26T10:36:45+02:00</time>
      </trkpt>
      <trkpt lat="42.83531" lon="-0.0305">
        <ele>1729</ele>
        <time>2022-05-26T10:38:31+02:00</time>
      </trkpt>
      <trkpt lat="42.83518" lon="-0.03079">
        <ele>1744</ele>
        <time>2022-05-26T10:39:36+02:00</time>
      </trkpt>
      <trkpt lat="42.83507" lon="-0.03108">
        <ele>1756</ele>
        <time>2022-05-26T10:41:42+02:00</time>
      </trkpt>
      <trkpt lat="42.83499" lon="-0.03138">
        <ele>1767</ele>
        <time>2022-05-26T10:42:44+02:00</time>
      </trkpt>
      <trkpt lat="42.83488" lon="-0.03166">
        <ele>1779</ele>
        <time>2022-05-26T10:43:51+02:00</time>
      </trkpt>
      <trkpt lat="42.83469" lon="-0.03185">
        <ele>1787</ele>
        <time>2022-05-26T10:44:31+02:00</time>
      </trkpt>
      <trkpt lat="42.83445" lon="-0.03185">
        <ele>1798</ele>
        <time>2022-05-26T10:45:36+02:00</time>
      </trkpt>
      <trkpt lat="42.83422" lon="-0.03186">
        <ele>1807</ele>
        <time>2022-05-26T10:46:41+02:00</time>
      </trkpt>
      <trkpt lat="42.83399" lon="-0.03193">
        <ele>1817</ele>
        <time>2022-05-26T10:48:40+02:00</time>
      </trkpt>
      <trkpt lat="42.83396" lon="-0.03224">
        <ele>1829</ele>
        <time>2022-05-26T10:50:14+02:00</time>
      </trkpt>
      <trkpt lat="42.83397" lon="-0.03256">
        <ele>1842</ele>
        <time>2022-05-26T10:51:55+02:00</time>
      </trkpt>
      <trkpt lat="42.83389" lon="-0.03285">
        <ele>1858</ele>
        <time>2022-05-26T10:54:08+02:00</time>
      </trkpt>
      <trkpt lat="42.83367" lon="-0.03281">
        <ele>1863</ele>
        <time>2022-05-26T10:55:13+02:00</time>
      </trkpt>
      <trkpt lat="42.83343" lon="-0.03268">
        <ele>1865</ele>
        <time>2022-05-26T10:55:34+02:00</time>
      </trkpt>
      <trkpt lat="42.83325" lon="-0.03248">
        <ele>1862</ele>
        <time>2022-05-26T10:55:52+02:00</time>
      </trkpt>
      <trkpt lat="42.833" lon="-0.03238">
        <ele>1863</ele>
        <time>2022-05-26T10:56:14+02:00</time>
      </trkpt>
      <trkpt lat="42.83277" lon="-0.03228">
        <ele>1861</ele>
        <time>2022-05-26T10:56:31+02:00</time>
      </trkpt>
      <trkpt lat="42.83252" lon="-0.03222">
        <ele>1861</ele>
        <time>2022-05-26T10:56:49+02:00</time>
      </trkpt>
      <trkpt lat="42.83229" lon="-0.03211">
        <ele>1856</ele>
        <time>2022-05-26T10:57:09+02:00</time>
      </trkpt>
      <trkpt lat="42.83207" lon="-0.03215">
        <ele>1858</ele>
        <time>2022-05-26T10:57:56+02:00</time>
      </trkpt>
      <trkpt lat="42.83184" lon="-0.03215">
        <ele>1856</ele>
        <time>2022-05-26T10:58:19+02:00</time>
      </trkpt>
      <trkpt lat="42.83159" lon="-0.03216">
        <ele>1853</ele>
        <time>2022-05-26T10:58:58+02:00</time>
      </trkpt>
      <trkpt lat="42.83137" lon="-0.03229">
        <ele>1857</ele>
        <time>2022-05-26T11:00:25+02:00</time>
      </trkpt>
      <trkpt lat="42.83114" lon="-0.03228">
        <ele>1842</ele>
        <time>2022-05-26T11:01:23+02:00</time>
      </trkpt>
      <trkpt lat="42.83096" lon="-0.03248">
        <ele>1862</ele>
        <time>2022-05-26T11:02:13+02:00</time>
      </trkpt>
      <trkpt lat="42.83073" lon="-0.03239">
        <ele>1868</ele>
        <time>2022-05-26T11:02:48+02:00</time>
      </trkpt>
      <trkpt lat="42.83056" lon="-0.03218">
        <ele>1863</ele>
        <time>2022-05-26T11:03:20+02:00</time>
      </trkpt>
      <trkpt lat="42.83037" lon="-0.03202">
        <ele>1869</ele>
        <time>2022-05-26T11:04:14+02:00</time>
      </trkpt>
      <trkpt lat="42.83013" lon="-0.03202">
        <ele>1883</ele>
        <time>2022-05-26T11:06:09+02:00</time>
      </trkpt>
      <trkpt lat="42.82992" lon="-0.03192">
        <ele>1895</ele>
        <time>2022-05-26T11:08:47+02:00</time>
      </trkpt>
      <trkpt lat="42.82969" lon="-0.03196">
        <ele>1910</ele>
        <time>2022-05-26T11:10:23+02:00</time>
      </trkpt>
      <trkpt lat="42.82951" lon="-0.03176">
        <ele>1914</ele>
        <time>2022-05-26T11:11:31+02:00</time>
      </trkpt>
      <trkpt lat="42.82928" lon="-0.03169">
        <ele>1921</ele>
        <time>2022-05-26T11:12:44+02:00</time>
      </trkpt>
      <trkpt lat="42.82905" lon="-0.03164">
        <ele>1926</ele>
        <time>2022-05-26T11:13:24+02:00</time>
      </trkpt>
      <trkpt lat="42.82881" lon="-0.03162">
        <ele>1933</ele>
        <time>2022-05-26T11:13:56+02:00</time>
      </trkpt>
      <trkpt lat="42.82858" lon="-0.0317">
        <ele>1944</ele>
        <time>2022-05-26T11:15:03+02:00</time>
      </trkpt>
      <trkpt lat="42.82835" lon="-0.0317">
        <ele>1950</ele>
        <time>2022-05-26T11:15:48+02:00</time>
      </trkpt>
      <trkpt lat="42.82813" lon="-0.03166">
        <ele>1957</ele>
        <time>2022-05-26T11:16:54+02:00</time>
      </trkpt>
      <trkpt lat="42.82789" lon="-0.03173">
        <ele>1966</ele>
        <time>2022-05-26T11:17:42+02:00</time>
      </trkpt>
      <trkpt lat="42.82767" lon="-0.03161">
        <ele>1969</ele>
        <time>2022-05-26T11:18:42+02:00</time>
      </trkpt>
      <trkpt lat="42.82744" lon="-0.03147">
        <ele>1972</ele>
        <time>2022-05-26T11:19:43+02:00</time>
      </trkpt>
      <trkpt lat="42.82722" lon="-0.03136">
        <ele>1979</ele>
        <time>2022-05-26T11:20:38+02:00</time>
      </trkpt>
      <trkpt lat="42.82701" lon="-0.03118">
        <ele>1985</ele>
        <time>2022-05-26T11:21:55+02:00</time>
      </trkpt>
      <trkpt lat="42.82679" lon="-0.03108">
        <ele>1995</ele>
        <time>2022-05-26T11:23:03+02:00</time>
      </trkpt>
      <trkpt lat="42.82655" lon="-0.03098">
        <ele>2007</ele>
        <time>2022-05-26T11:23:56+02:00</time>
      </trkpt>
      <trkpt lat="42.82635" lon="-0.03082">
        <ele>2018</ele>
        <time>2022-05-26T11:25:26+02:00</time>
      </trkpt>
      <trkpt lat="42.82622" lon="-0.03056">
        <ele>2016</ele>
        <time>2022-05-26T11:27:13+02:00</time>
      </trkpt>
      <trkpt lat="42.82602" lon="-0.03074">
        <ele>2021</ele>
        <time>2022-05-26T11:28:45+02:00</time>
      </trkpt>
      <trkpt lat="42.82583" lon="-0.03055">
        <ele>2019</ele>
        <time>2022-05-26T11:29:29+02:00</time>
      </trkpt>
      <trkpt lat="42.82565" lon="-0.03037">
        <ele>2019</ele>
        <time>2022-05-26T11:30:40+02:00</time>
      </trkpt>
      <trkpt lat="42.82543" lon="-0.03028">
        <ele>2019</ele>
        <time>2022-05-26T11:31:04+02:00</time>
      </trkpt>
      <trkpt lat="42.82526" lon="-0.03048">
        <ele>2019</ele>
        <time>2022-05-26T11:31:50+02:00</time>
      </trkpt>
      <trkpt lat="42.82507" lon="-0.03067">
        <ele>2019</ele>
        <time>2022-05-26T11:32:38+02:00</time>
      </trkpt>
      <trkpt lat="42.82484" lon="-0.03074">
        <ele>2019</ele>
        <time>2022-05-26T11:32:56+02:00</time>
      </trkpt>
      <trkpt lat="42.82463" lon="-0.03088">
        <ele>2020</ele>
        <time>2022-05-26T11:34:29+02:00</time>
      </trkpt>
      <trkpt lat="42.82443" lon="-0.03106">
        <ele>2019</ele>
        <time>2022-05-26T11:35:54+02:00</time>
      </trkpt>
      <trkpt lat="42.8242" lon="-0.0311">
        <ele>2020</ele>
        <time>2022-05-26T11:36:34+02:00</time>
      </trkpt>
      <trkpt lat="42.82397" lon="-0.03112">
        <ele>2020</ele>
        <time>2022-05-26T11:37:27+02:00</time>
      </trkpt>
      <trkpt lat="42.82376" lon="-0.03128">
        <ele>2022</ele>
        <time>2022-05-26T11:38:04+02:00</time>
      </trkpt>
      <trkpt lat="42.82351" lon="-0.03126">
        <ele>2020</ele>
        <time>2022-05-26T11:39:02+02:00</time>
      </trkpt>
      <trkpt lat="42.82338" lon="-0.03154">
        <ele>2021</ele>
        <time>2022-05-26T11:40:45+02:00</time>
      </trkpt>
      <trkpt lat="42.82315" lon="-0.03158">
        <ele>2020</ele>
        <time>2022-05-26T11:42:19+02:00</time>
      </trkpt>
      <trkpt lat="42.82293" lon="-0.0315">
        <ele>2023</ele>
        <time>2022-05-26T11:44:44+02:00</time>
      </trkpt>
      <trkpt lat="42.82272" lon="-0.03132">
        <ele>2025</ele>
        <time>2022-05-26T11:45:22+02:00</time>
      </trkpt>
      <trkpt lat="42.82268" lon="-0.03099">
        <ele>2022</ele>
        <time>2022-05-26T11:46:47+02:00</time>
      </trkpt>
      <trkpt lat="42.82252" lon="-0.03077">
        <ele>2021</ele>
        <time>2022-05-26T11:47:39+02:00</time>
      </trkpt>
      <trkpt lat="42.82236" lon="-0.03054">
        <ele>2022</ele>
        <time>2022-05-26T11:48:26+02:00</time>
      </trkpt>
      <trkpt lat="42.8222" lon="-0.03078">
        <ele>2027</ele>
        <time>2022-05-26T11:53:05+02:00</time>
      </trkpt>
      <trkpt lat="42.82199" lon="-0.03091">
        <ele>2034</ele>
        <time>2022-05-26T11:53:38+02:00</time>
      </trkpt>
      <trkpt lat="42.82176" lon="-0.03096">
        <ele>2047</ele>
        <time>2022-05-26T11:55:15+02:00</time>
      </trkpt>
      <trkpt lat="42.8216" lon="-0.0312">
        <ele>2053</ele>
        <time>2022-05-26T11:57:19+02:00</time>
      </trkpt>
      <trkpt lat="42.8214" lon="-0.031">
        <ele>2062</ele>
        <time>2022-05-26T11:59:07+02:00</time>
      </trkpt>
      <trkpt lat="42.82127" lon="-0.03075">
        <ele>2067</ele>
        <time>2022-05-26T12:18:40+02:00</time>
      </trkpt>
      <trkpt lat="42.82138" lon="-0.03104">
        <ele>2062</ele>
        <time>2022-05-26T12:27:43+02:00</time>
      </trkpt>
      <trkpt lat="42.82159" lon="-0.03116">
        <ele>2054</ele>
        <time>2022-05-26T12:29:23+02:00</time>
      </trkpt>
      <trkpt lat="42.82178" lon="-0.03099">
        <ele>2046</ele>
        <time>2022-05-26T12:31:16+02:00</time>
      </trkpt>
      <trkpt lat="42.82177" lon="-0.03067">
        <ele>2044</ele>
        <time>2022-05-26T12:32:26+02:00</time>
      </trkpt>
      <trkpt lat="42.82201" lon="-0.03063">
        <ele>2029</ele>
        <time>2022-05-26T12:33:20+02:00</time>
      </trkpt>
      <trkpt lat="42.82219" lon="-0.03045">
        <ele>2025</ele>
        <time>2022-05-26T12:33:50+02:00</time>
      </trkpt>
      <trkpt lat="42.82239" lon="-0.03026">
        <ele>2022</ele>
        <time>2022-05-26T12:35:01+02:00</time>
      </trkpt>
      <trkpt lat="42.82249" lon="-0.02996">
        <ele>2022</ele>
        <time>2022-05-26T12:36:03+02:00</time>
      </trkpt>
      <trkpt lat="42.82273" lon="-0.02998">
        <ele>2020</ele>
        <time>2022-05-26T12:36:31+02:00</time>
      </trkpt>
      <trkpt lat="42.82298" lon="-0.02996">
        <ele>2020</ele>
        <time>2022-05-26T12:37:11+02:00</time>
      </trkpt>
      <trkpt lat="42.82321" lon="-0.02996">
        <ele>2020</ele>
        <time>2022-05-26T12:39:45+02:00</time>
      </trkpt>
      <trkpt lat="42.82341" lon="-0.02981">
        <ele>2024</ele>
        <time>2022-05-26T12:40:55+02:00</time>
      </trkpt>
      <trkpt lat="42.82365" lon="-0.02981">
        <ele>2023</ele>
        <time>2022-05-26T12:42:38+02:00</time>
      </trkpt>
      <trkpt lat="42.82388" lon="-0.02981">
        <ele>2024</ele>
        <time>2022-05-26T12:43:25+02:00</time>
      </trkpt>
      <trkpt lat="42.82412" lon="-0.0299">
        <ele>2023</ele>
        <time>2022-05-26T12:43:58+02:00</time>
      </trkpt>
      <trkpt lat="42.82435" lon="-0.02997">
        <ele>2021</ele>
        <time>2022-05-26T12:45:31+02:00</time>
      </trkpt>
      <trkpt lat="42.82458" lon="-0.02996">
        <ele>2021</ele>
        <time>2022-05-26T12:46:18+02:00</time>
      </trkpt>
      <trkpt lat="42.8248" lon="-0.03005">
        <ele>2020</ele>
        <time>2022-05-26T12:46:54+02:00</time>
      </trkpt>
      <trkpt lat="42.82488" lon="-0.03001">
        <ele>2019</ele>
        <time>2022-05-26T12:47:09+02:00</time>
      </trkpt>
      <trkpt lat="42.82512" lon="-0.02996">
        <ele>2020</ele>
        <time>2022-05-26T12:48:02+02:00</time>
      </trkpt>
      <trkpt lat="42.82535" lon="-0.03001">
        <ele>2019</ele>
        <time>2022-05-26T12:48:41+02:00</time>
      </trkpt>
      <trkpt lat="42.8255" lon="-0.03024">
        <ele>2019</ele>
        <time>2022-05-26T12:49:24+02:00</time>
      </trkpt>
      <trkpt lat="42.82573" lon="-0.0304">
        <ele>2019</ele>
        <time>2022-05-26T12:50:04+02:00</time>
      </trkpt>
      <trkpt lat="42.82588" lon="-0.03064">
        <ele>2019</ele>
        <time>2022-05-26T12:50:43+02:00</time>
      </trkpt>
      <trkpt lat="42.82611" lon="-0.03061">
        <ele>2020</ele>
        <time>2022-05-26T12:51:30+02:00</time>
      </trkpt>
      <trkpt lat="42.82633" lon="-0.03072">
        <ele>2016</ele>
        <time>2022-05-26T12:52:19+02:00</time>
      </trkpt>
      <trkpt lat="42.82654" lon="-0.03088">
        <ele>2007</ele>
        <time>2022-05-26T12:53:02+02:00</time>
      </trkpt>
      <trkpt lat="42.82669" lon="-0.03112">
        <ele>2001</ele>
        <time>2022-05-26T12:55:13+02:00</time>
      </trkpt>
      <trkpt lat="42.82682" lon="-0.03137">
        <ele>1998</ele>
        <time>2022-05-26T12:55:31+02:00</time>
      </trkpt>
      <trkpt lat="42.82698" lon="-0.03159">
        <ele>1995</ele>
        <time>2022-05-26T12:56:13+02:00</time>
      </trkpt>
      <trkpt lat="42.82718" lon="-0.03178">
        <ele>1991</ele>
        <time>2022-05-26T12:57:57+02:00</time>
      </trkpt>
      <trkpt lat="42.82732" lon="-0.03203">
        <ele>1994</ele>
        <time>2022-05-26T12:59:07+02:00</time>
      </trkpt>
      <trkpt lat="42.82747" lon="-0.0323">
        <ele>1999</ele>
        <time>2022-05-26T12:59:58+02:00</time>
      </trkpt>
      <trkpt lat="42.8276" lon="-0.03256">
        <ele>2003</ele>
        <time>2022-05-26T13:02:09+02:00</time>
      </trkpt>
      <trkpt lat="42.82772" lon="-0.03283">
        <ele>2008</ele>
        <time>2022-05-26T13:02:57+02:00</time>
      </trkpt>
      <trkpt lat="42.82793" lon="-0.033">
        <ele>2007</ele>
        <time>2022-05-26T13:03:14+02:00</time>
      </trkpt>
      <trkpt lat="42.82813" lon="-0.03314">
        <ele>2007</ele>
        <time>2022-05-26T13:03:46+02:00</time>
      </trkpt>
      <trkpt lat="42.8283" lon="-0.03336">
        <ele>2010</ele>
        <time>2022-05-26T13:04:43+02:00</time>
      </trkpt>
      <trkpt lat="42.82853" lon="-0.0335">
        <ele>2010</ele>
        <time>2022-05-26T13:05:13+02:00</time>
      </trkpt>
      <trkpt lat="42.82871" lon="-0.03371">
        <ele>2014</ele>
        <time>2022-05-26T13:05:30+02:00</time>
      </trkpt>
      <trkpt lat="42.82887" lon="-0.03394">
        <ele>2016</ele>
        <time>2022-05-26T13:06:09+02:00</time>
      </trkpt>
      <trkpt lat="42.82904" lon="-0.03417">
        <ele>2019</ele>
        <time>2022-05-26T13:09:00+02:00</time>
      </trkpt>
      <trkpt lat="42.82925" lon="-0.03432">
        <ele>2022</ele>
        <time>2022-05-26T13:09:19+02:00</time>
      </trkpt>
      <trkpt lat="42.82946" lon="-0.03445">
        <ele>2025</ele>
        <time>2022-05-26T13:09:55+02:00</time>
      </trkpt>
      <trkpt lat="42.82961" lon="-0.03469">
        <ele>2030</ele>
        <time>2022-05-26T13:11:06+02:00</time>
      </trkpt>
      <trkpt lat="42.8296" lon="-0.03501">
        <ele>2038</ele>
        <time>2022-05-26T13:12:21+02:00</time>
      </trkpt>
      <trkpt lat="42.82981" lon="-0.03516">
        <ele>2031</ele>
        <time>2022-05-26T13:13:13+02:00</time>
      </trkpt>
      <trkpt lat="42.82995" lon="-0.03541">
        <ele>2035</ele>
        <time>2022-05-26T13:14:04+02:00</time>
      </trkpt>
      <trkpt lat="42.83017" lon="-0.03526">
        <ele>2019</ele>
        <time>2022-05-26T13:15:56+02:00</time>
      </trkpt>
      <trkpt lat="42.83039" lon="-0.03538">
        <ele>2020</ele>
        <time>2022-05-26T13:16:31+02:00</time>
      </trkpt>
      <trkpt lat="42.83063" lon="-0.03542">
        <ele>2024</ele>
        <time>2022-05-26T13:16:57+02:00</time>
      </trkpt>
      <trkpt lat="42.83072" lon="-0.03514">
        <ele>2012</ele>
        <time>2022-05-26T13:18:09+02:00</time>
      </trkpt>
      <trkpt lat="42.83086" lon="-0.03489">
        <ele>2004</ele>
        <time>2022-05-26T13:19:03+02:00</time>
      </trkpt>
      <trkpt lat="42.83086" lon="-0.03458">
        <ele>1990</ele>
        <time>2022-05-26T13:19:54+02:00</time>
      </trkpt>
      <trkpt lat="42.83095" lon="-0.03428">
        <ele>1974</ele>
        <time>2022-05-26T13:20:49+02:00</time>
      </trkpt>
      <trkpt lat="42.83119" lon="-0.03433">
        <ele>1974</ele>
        <time>2022-05-26T13:21:49+02:00</time>
      </trkpt>
      <trkpt lat="42.83142" lon="-0.03431">
        <ele>1967</ele>
        <time>2022-05-26T13:22:18+02:00</time>
      </trkpt>
      <trkpt lat="42.83164" lon="-0.0342">
        <ele>1958</ele>
        <time>2022-05-26T13:23:01+02:00</time>
      </trkpt>
      <trkpt lat="42.83183" lon="-0.034">
        <ele>1945</ele>
        <time>2022-05-26T13:25:06+02:00</time>
      </trkpt>
      <trkpt lat="42.83206" lon="-0.03399">
        <ele>1942</ele>
        <time>2022-05-26T13:26:04+02:00</time>
      </trkpt>
      <trkpt lat="42.83227" lon="-0.03381">
        <ele>1931</ele>
        <time>2022-05-26T13:26:31+02:00</time>
      </trkpt>
      <trkpt lat="42.8325" lon="-0.03387">
        <ele>1931</ele>
        <time>2022-05-26T13:26:54+02:00</time>
      </trkpt>
      <trkpt lat="42.8327" lon="-0.03372">
        <ele>1922</ele>
        <time>2022-05-26T13:27:56+02:00</time>
      </trkpt>
      <trkpt lat="42.83289" lon="-0.03351">
        <ele>1912</ele>
        <time>2022-05-26T13:28:26+02:00</time>
      </trkpt>
      <trkpt lat="42.83312" lon="-0.03362">
        <ele>1912</ele>
        <time>2022-05-26T13:29:03+02:00</time>
      </trkpt>
      <trkpt lat="42.83335" lon="-0.03363">
        <ele>1907</ele>
        <time>2022-05-26T13:29:33+02:00</time>
      </trkpt>
      <trkpt lat="42.8336" lon="-0.03355">
        <ele>1896</ele>
        <time>2022-05-26T13:30:24+02:00</time>
      </trkpt>
      <trkpt lat="42.83381" lon="-0.03367">
        <ele>1894</ele>
        <time>2022-05-26T13:30:40+02:00</time>
      </trkpt>
      <trkpt lat="42.83398" lon="-0.03387">
        <ele>1896</ele>
        <time>2022-05-26T13:31:03+02:00</time>
      </trkpt>
      <trkpt lat="42.83401" lon="-0.03421">
        <ele>1906</ele>
        <time>2022-05-26T13:31:38+02:00</time>
      </trkpt>
      <trkpt lat="42.83421" lon="-0.03436">
        <ele>1900</ele>
        <time>2022-05-26T13:31:55+02:00</time>
      </trkpt>
      <trkpt lat="42.83441" lon="-0.03422">
        <ele>1888</ele>
        <time>2022-05-26T13:32:39+02:00</time>
      </trkpt>
      <trkpt lat="42.83456" lon="-0.03396">
        <ele>1879</ele>
        <time>2022-05-26T13:33:14+02:00</time>
      </trkpt>
      <trkpt lat="42.83478" lon="-0.03387">
        <ele>1877</ele>
        <time>2022-05-26T13:33:51+02:00</time>
      </trkpt>
      <trkpt lat="42.83499" lon="-0.03368">
        <ele>1869</ele>
        <time>2022-05-26T13:35:21+02:00</time>
      </trkpt>
      <trkpt lat="42.83487" lon="-0.03342">
        <ele>1857</ele>
        <time>2022-05-26T13:36:02+02:00</time>
      </trkpt>
      <trkpt lat="42.83463" lon="-0.03337">
        <ele>1853</ele>
        <time>2022-05-26T13:38:17+02:00</time>
      </trkpt>
      <trkpt lat="42.83443" lon="-0.03354">
        <ele>1861</ele>
        <time>2022-05-26T13:39:27+02:00</time>
      </trkpt>
      <trkpt lat="42.83422" lon="-0.03341">
        <ele>1867</ele>
        <time>2022-05-26T13:39:51+02:00</time>
      </trkpt>
      <trkpt lat="42.83404" lon="-0.03321">
        <ele>1868</ele>
        <time>2022-05-26T13:40:06+02:00</time>
      </trkpt>
      <trkpt lat="42.83384" lon="-0.03297">
        <ele>1865</ele>
        <time>2022-05-26T13:40:24+02:00</time>
      </trkpt>
      <trkpt lat="42.83403" lon="-0.03276">
        <ele>1849</ele>
        <time>2022-05-26T13:41:57+02:00</time>
      </trkpt>
      <trkpt lat="42.83392" lon="-0.03249">
        <ele>1841</ele>
        <time>2022-05-26T13:42:37+02:00</time>
      </trkpt>
      <trkpt lat="42.83397" lon="-0.03217">
        <ele>1826</ele>
        <time>2022-05-26T13:43:30+02:00</time>
      </trkpt>
      <trkpt lat="42.834" lon="-0.03187">
        <ele>1814</ele>
        <time>2022-05-26T13:44:26+02:00</time>
      </trkpt>
      <trkpt lat="42.83423" lon="-0.03183">
        <ele>1805</ele>
        <time>2022-05-26T13:45:15+02:00</time>
      </trkpt>
      <trkpt lat="42.83446" lon="-0.03182">
        <ele>1796</ele>
        <time>2022-05-26T13:45:52+02:00</time>
      </trkpt>
      <trkpt lat="42.8347" lon="-0.03182">
        <ele>1786</ele>
        <time>2022-05-26T13:46:36+02:00</time>
      </trkpt>
      <trkpt lat="42.83489" lon="-0.03163">
        <ele>1778</ele>
        <time>2022-05-26T13:47:00+02:00</time>
      </trkpt>
      <trkpt lat="42.83499" lon="-0.03133">
        <ele>1765</ele>
        <time>2022-05-26T13:47:40+02:00</time>
      </trkpt>
      <trkpt lat="42.83509" lon="-0.03105">
        <ele>1755</ele>
        <time>2022-05-26T13:48:14+02:00</time>
      </trkpt>
      <trkpt lat="42.83495" lon="-0.03082">
        <ele>1753</ele>
        <time>2022-05-26T13:48:45+02:00</time>
      </trkpt>
      <trkpt lat="42.83516" lon="-0.03071">
        <ele>1743</ele>
        <time>2022-05-26T13:49:19+02:00</time>
      </trkpt>
      <trkpt lat="42.83529" lon="-0.03045">
        <ele>1728</ele>
        <time>2022-05-26T13:50:02+02:00</time>
      </trkpt>
      <trkpt lat="42.83543" lon="-0.0302">
        <ele>1716</ele>
        <time>2022-05-26T13:51:02+02:00</time>
      </trkpt>
      <trkpt lat="42.83535" lon="-0.02989">
        <ele>1707</ele>
        <time>2022-05-26T13:51:51+02:00</time>
      </trkpt>
      <trkpt lat="42.83553" lon="-0.02971">
        <ele>1697</ele>
        <time>2022-05-26T13:52:29+02:00</time>
      </trkpt>
      <trkpt lat="42.83577" lon="-0.02968">
        <ele>1689</ele>
        <time>2022-05-26T13:53:06+02:00</time>
      </trkpt>
      <trkpt lat="42.83598" lon="-0.02983">
        <ele>1687</ele>
        <time>2022-05-26T13:53:33+02:00</time>
      </trkpt>
      <trkpt lat="42.83613" lon="-0.02955">
        <ele>1674</ele>
        <time>2022-05-26T13:53:57+02:00</time>
      </trkpt>
      <trkpt lat="42.83629" lon="-0.02931">
        <ele>1669</ele>
        <time>2022-05-26T13:54:20+02:00</time>
      </trkpt>
      <trkpt lat="42.83649" lon="-0.02913">
        <ele>1666</ele>
        <time>2022-05-26T13:54:53+02:00</time>
      </trkpt>
      <trkpt lat="42.83671" lon="-0.02898">
        <ele>1668</ele>
        <time>2022-05-26T13:55:08+02:00</time>
      </trkpt>
      <trkpt lat="42.83694" lon="-0.02899">
        <ele>1675</ele>
        <time>2022-05-26T13:55:29+02:00</time>
      </trkpt>
      <trkpt lat="42.83718" lon="-0.0289">
        <ele>1675</ele>
        <time>2022-05-26T13:55:49+02:00</time>
      </trkpt>
      <trkpt lat="42.83734" lon="-0.02867">
        <ele>1669</ele>
        <time>2022-05-26T13:56:19+02:00</time>
      </trkpt>
      <trkpt lat="42.83758" lon="-0.02859">
        <ele>1671</ele>
        <time>2022-05-26T13:56:39+02:00</time>
      </trkpt>
      <trkpt lat="42.83776" lon="-0.02839">
        <ele>1667</ele>
        <time>2022-05-26T13:57:08+02:00</time>
      </trkpt>
      <trkpt lat="42.83787" lon="-0.02811">
        <ele>1658</ele>
        <time>2022-05-26T13:57:41+02:00</time>
      </trkpt>
      <trkpt lat="42.83801" lon="-0.02785">
        <ele>1652</ele>
        <time>2022-05-26T13:58:13+02:00</time>
      </trkpt>
      <trkpt lat="42.83814" lon="-0.02759">
        <ele>1646</ele>
        <time>2022-05-26T13:58:29+02:00</time>
      </trkpt>
      <trkpt lat="42.83833" lon="-0.02742">
        <ele>1644</ele>
        <time>2022-05-26T13:59:12+02:00</time>
      </trkpt>
      <trkpt lat="42.83855" lon="-0.02733">
        <ele>1644</ele>
        <time>2022-05-26T14:00:40+02:00</time>
      </trkpt>
      <trkpt lat="42.83862" lon="-0.02702">
        <ele>1629</ele>
        <time>2022-05-26T14:01:26+02:00</time>
      </trkpt>
      <trkpt lat="42.83875" lon="-0.02676">
        <ele>1615</ele>
        <time>2022-05-26T14:01:50+02:00</time>
      </trkpt>
      <trkpt lat="42.83895" lon="-0.02654">
        <ele>1606</ele>
        <time>2022-05-26T14:02:29+02:00</time>
      </trkpt>
      <trkpt lat="42.83915" lon="-0.02637">
        <ele>1599</ele>
        <time>2022-05-26T14:03:37+02:00</time>
      </trkpt>
      <trkpt lat="42.83931" lon="-0.02613">
        <ele>1586</ele>
        <time>2022-05-26T14:04:31+02:00</time>
      </trkpt>
      <trkpt lat="42.83952" lon="-0.02601">
        <ele>1581</ele>
        <time>2022-05-26T14:05:13+02:00</time>
      </trkpt>
      <trkpt lat="42.8395" lon="-0.0257">
        <ele>1569</ele>
        <time>2022-05-26T14:06:05+02:00</time>
      </trkpt>
      <trkpt lat="42.83927" lon="-0.02553">
        <ele>1564</ele>
        <time>2022-05-26T14:06:32+02:00</time>
      </trkpt>
      <trkpt lat="42.83943" lon="-0.02529">
        <ele>1554</ele>
        <time>2022-05-26T14:07:20+02:00</time>
      </trkpt>
      <trkpt lat="42.83957" lon="-0.02502">
        <ele>1549</ele>
        <time>2022-05-26T14:07:51+02:00</time>
      </trkpt>
      <trkpt lat="42.83959" lon="-0.0247">
        <ele>1542</ele>
        <time>2022-05-26T14:08:17+02:00</time>
      </trkpt>
      <trkpt lat="42.8395" lon="-0.02441">
        <ele>1527</ele>
        <time>2022-05-26T14:09:11+02:00</time>
      </trkpt>
      <trkpt lat="42.83929" lon="-0.02425">
        <ele>1513</ele>
        <time>2022-05-26T14:10:02+02:00</time>
      </trkpt>
      <trkpt lat="42.83946" lon="-0.02404">
        <ele>1514</ele>
        <time>2022-05-26T14:10:26+02:00</time>
      </trkpt>
      <trkpt lat="42.83949" lon="-0.02372">
        <ele>1506</ele>
        <time>2022-05-26T14:11:16+02:00</time>
      </trkpt>
      <trkpt lat="42.83954" lon="-0.0234">
        <ele>1496</ele>
        <time>2022-05-26T14:11:40+02:00</time>
      </trkpt>
      <trkpt lat="42.83965" lon="-0.0231">
        <ele>1490</ele>
        <time>2022-05-26T14:11:57+02:00</time>
      </trkpt>
      <trkpt lat="42.83984" lon="-0.02286">
        <ele>1489</ele>
        <time>2022-05-26T14:12:14+02:00</time>
      </trkpt>
      <trkpt lat="42.84002" lon="-0.02264">
        <ele>1488</ele>
        <time>2022-05-26T14:12:37+02:00</time>
      </trkpt>
      <trkpt lat="42.84012" lon="-0.02234">
        <ele>1481</ele>
        <time>2022-05-26T14:12:57+02:00</time>
      </trkpt>
      <trkpt lat="42.84026" lon="-0.02206">
        <ele>1477</ele>
        <time>2022-05-26T14:13:12+02:00</time>
      </trkpt>
      <trkpt lat="42.84043" lon="-0.02184">
        <ele>1476</ele>
        <time>2022-05-26T14:13:34+02:00</time>
      </trkpt>
      <trkpt lat="42.84049" lon="-0.02154">
        <ele>1464</ele>
        <time>2022-05-26T14:14:18+02:00</time>
      </trkpt>
      <trkpt lat="42.84072" lon="-0.02151">
        <ele>1472</ele>
        <time>2022-05-26T14:14:40+02:00</time>
      </trkpt>
      <trkpt lat="42.84089" lon="-0.02126">
        <ele>1465</ele>
        <time>2022-05-26T14:14:58+02:00</time>
      </trkpt>
      <trkpt lat="42.84107" lon="-0.02103">
        <ele>1460</ele>
        <time>2022-05-26T14:15:15+02:00</time>
      </trkpt>
      <trkpt lat="42.8412" lon="-0.02077">
        <ele>1452</ele>
        <time>2022-05-26T14:15:28+02:00</time>
      </trkpt>
      <trkpt lat="42.84138" lon="-0.02058">
        <ele>1450</ele>
        <time>2022-05-26T14:15:47+02:00</time>
      </trkpt>
      <trkpt lat="42.84162" lon="-0.02051">
        <ele>1452</ele>
        <time>2022-05-26T14:16:04+02:00</time>
      </trkpt>
      <trkpt lat="42.84187" lon="-0.02053">
        <ele>1456</ele>
        <time>2022-05-26T14:16:26+02:00</time>
      </trkpt>
      <trkpt lat="42.84209" lon="-0.02042">
        <ele>1453</ele>
        <time>2022-05-26T14:16:48+02:00</time>
      </trkpt>
      <trkpt lat="42.84231" lon="-0.0203">
        <ele>1449</ele>
        <time>2022-05-26T14:17:07+02:00</time>
      </trkpt>
      <trkpt lat="42.84214" lon="-0.0201">
        <ele>1439</ele>
        <time>2022-05-26T14:17:41+02:00</time>
      </trkpt>
      <trkpt lat="42.84238" lon="-0.02003">
        <ele>1437</ele>
        <time>2022-05-26T14:18:12+02:00</time>
      </trkpt>
      <trkpt lat="42.84261" lon="-0.01997">
        <ele>1429</ele>
        <time>2022-05-26T14:18:31+02:00</time>
      </trkpt>
      <trkpt lat="42.84284" lon="-0.01992">
        <ele>1422</ele>
        <time>2022-05-26T14:18:55+02:00</time>
      </trkpt>
      <trkpt lat="42.84305" lon="-0.01978">
        <ele>1414</ele>
        <time>2022-05-26T14:19:10+02:00</time>
      </trkpt>
      <trkpt lat="42.84328" lon="-0.01967">
        <ele>1412</ele>
        <time>2022-05-26T14:19:26+02:00</time>
      </trkpt>
      <trkpt lat="42.84351" lon="-0.01957">
        <ele>1407</ele>
        <time>2022-05-26T14:19:44+02:00</time>
      </trkpt>
      <trkpt lat="42.84376" lon="-0.01951">
        <ele>1404</ele>
        <time>2022-05-26T14:20:12+02:00</time>
      </trkpt>
      <trkpt lat="42.84401" lon="-0.01952">
        <ele>1401</ele>
        <time>2022-05-26T14:22:08+02:00</time>
      </trkpt>
      <trkpt lat="42.84423" lon="-0.01961">
        <ele>1401</ele>
        <time>2022-05-26T14:22:21+02:00</time>
      </trkpt>
      <trkpt lat="42.84447" lon="-0.01961">
        <ele>1394</ele>
        <time>2022-05-26T14:22:40+02:00</time>
      </trkpt>
      <trkpt lat="42.8447" lon="-0.0196">
        <ele>1384</ele>
        <time>2022-05-26T14:23:07+02:00</time>
      </trkpt>
      <trkpt lat="42.84493" lon="-0.0196">
        <ele>1380</ele>
        <time>2022-05-26T14:23:31+02:00</time>
      </trkpt>
      <trkpt lat="42.84516" lon="-0.01948">
        <ele>1375</ele>
        <time>2022-05-26T14:23:56+02:00</time>
      </trkpt>
      <trkpt lat="42.8454" lon="-0.01942">
        <ele>1370</ele>
        <time>2022-05-26T14:24:11+02:00</time>
      </trkpt>
      <trkpt lat="42.84563" lon="-0.01954">
        <ele>1373</ele>
        <time>2022-05-26T14:24:34+02:00</time>
      </trkpt>
      <trkpt lat="42.84586" lon="-0.01958">
        <ele>1369</ele>
        <time>2022-05-26T14:24:52+02:00</time>
      </trkpt>
      <trkpt lat="42.84606" lon="-0.01938">
        <ele>1358</ele>
        <time>2022-05-26T14:25:12+02:00</time>
      </trkpt>
      <trkpt lat="42.84628" lon="-0.01928">
        <ele>1351</ele>
        <time>2022-05-26T14:25:31+02:00</time>
      </trkpt>
      <trkpt lat="42.8465" lon="-0.0192">
        <ele>1347</ele>
        <time>2022-05-26T14:25:51+02:00</time>
      </trkpt>
      <trkpt lat="42.84674" lon="-0.0191">
        <ele>1342</ele>
        <time>2022-05-26T14:26:09+02:00</time>
      </trkpt>
      <trkpt lat="42.84694" lon="-0.01897">
        <ele>1334</ele>
        <time>2022-05-26T14:26:28+02:00</time>
      </trkpt>
      <trkpt lat="42.84719" lon="-0.01897">
        <ele>1333</ele>
        <time>2022-05-26T14:26:47+02:00</time>
      </trkpt>
      <trkpt lat="42.84741" lon="-0.01892">
        <ele>1329</ele>
        <time>2022-05-26T14:27:04+02:00</time>
      </trkpt>
      <trkpt lat="42.84765" lon="-0.01891">
        <ele>1327</ele>
        <time>2022-05-26T14:27:22+02:00</time>
      </trkpt>
      <trkpt lat="42.84787" lon="-0.0189">
        <ele>1324</ele>
        <time>2022-05-26T14:27:41+02:00</time>
      </trkpt>
      <trkpt lat="42.84812" lon="-0.01881">
        <ele>1319</ele>
        <time>2022-05-26T14:27:59+02:00</time>
      </trkpt>
      <trkpt lat="42.84835" lon="-0.01872">
        <ele>1316</ele>
        <time>2022-05-26T14:28:17+02:00</time>
      </trkpt>
      <trkpt lat="42.84853" lon="-0.01849">
        <ele>1308</ele>
        <time>2022-05-26T14:28:35+02:00</time>
      </trkpt>
      <trkpt lat="42.84877" lon="-0.01843">
        <ele>1306</ele>
        <time>2022-05-26T14:28:51+02:00</time>
      </trkpt>
      <trkpt lat="42.84899" lon="-0.01836">
        <ele>1303</ele>
        <time>2022-05-26T14:29:23+02:00</time>
      </trkpt>
      <trkpt lat="42.84919" lon="-0.01819">
        <ele>1295</ele>
        <time>2022-05-26T14:30:08+02:00</time>
      </trkpt>
      <trkpt lat="42.84942" lon="-0.01815">
        <ele>1292</ele>
        <time>2022-05-26T14:30:31+02:00</time>
      </trkpt>
      <trkpt lat="42.84964" lon="-0.01823">
        <ele>1292</ele>
        <time>2022-05-26T14:30:45+02:00</time>
      </trkpt>
      <trkpt lat="42.84989" lon="-0.01818">
        <ele>1286</ele>
        <time>2022-05-26T14:31:05+02:00</time>
      </trkpt>
      <trkpt lat="42.85012" lon="-0.01809">
        <ele>1278</ele>
        <time>2022-05-26T14:31:22+02:00</time>
      </trkpt>
      <trkpt lat="42.85036" lon="-0.01798">
        <ele>1272</ele>
        <time>2022-05-26T14:31:42+02:00</time>
      </trkpt>
      <trkpt lat="42.8506" lon="-0.01799">
        <ele>1272</ele>
        <time>2022-05-26T14:32:06+02:00</time>
      </trkpt>
      <trkpt lat="42.85083" lon="-0.01795">
        <ele>1269</ele>
        <time>2022-05-26T14:32:24+02:00</time>
      </trkpt>
      <trkpt lat="42.85108" lon="-0.01787">
        <ele>1260</ele>
        <time>2022-05-26T14:32:45+02:00</time>
      </trkpt>
      <trkpt lat="42.85135" lon="-0.01786">
        <ele>1254</ele>
        <time>2022-05-26T14:33:03+02:00</time>
      </trkpt>
      <trkpt lat="42.85159" lon="-0.01791">
        <ele>1251</ele>
        <time>2022-05-26T14:33:21+02:00</time>
      </trkpt>
      <trkpt lat="42.85182" lon="-0.01803">
        <ele>1251</ele>
        <time>2022-05-26T14:33:38+02:00</time>
      </trkpt>
      <trkpt lat="42.85206" lon="-0.01811">
        <ele>1248</ele>
        <time>2022-05-26T14:33:59+02:00</time>
      </trkpt>
      <trkpt lat="42.85229" lon="-0.01811">
        <ele>1241</ele>
        <time>2022-05-26T14:34:15+02:00</time>
      </trkpt>
      <trkpt lat="42.85254" lon="-0.01809">
        <ele>1235</ele>
        <time>2022-05-26T14:34:37+02:00</time>
      </trkpt>
      <trkpt lat="42.85278" lon="-0.01808">
        <ele>1231</ele>
        <time>2022-05-26T14:34:56+02:00</time>
      </trkpt>
      <trkpt lat="42.853" lon="-0.01819">
        <ele>1229</ele>
        <time>2022-05-26T14:35:17+02:00</time>
      </trkpt>
      <trkpt lat="42.85325" lon="-0.01829">
        <ele>1226</ele>
        <time>2022-05-26T14:35:31+02:00</time>
      </trkpt>
      <trkpt lat="42.8535" lon="-0.01835">
        <ele>1222</ele>
        <time>2022-05-26T14:35:50+02:00</time>
      </trkpt>
      <trkpt lat="42.85375" lon="-0.01833">
        <ele>1219</ele>
        <time>2022-05-26T14:36:10+02:00</time>
      </trkpt>
      <trkpt lat="42.85399" lon="-0.01832">
        <ele>1217</ele>
        <time>2022-05-26T14:36:30+02:00</time>
      </trkpt>
      <trkpt lat="42.8542" lon="-0.01816">
        <ele>1214</ele>
        <time>2022-05-26T14:36:51+02:00</time>
      </trkpt>
      <trkpt lat="42.85425" lon="-0.01784">
        <ele>1210</ele>
        <time>2022-05-26T14:37:11+02:00</time>
      </trkpt>
      <trkpt lat="42.85418" lon="-0.01749">
        <ele>1209</ele>
        <time>2022-05-26T14:39:06+02:00</time>
      </trkpt>
      <trkpt lat="42.85397" lon="-0.01734">
        <ele>1209</ele>
        <time>2022-05-26T14:39:22+02:00</time>
      </trkpt>
      <trkpt lat="42.85383" lon="-0.01708">
        <ele>1203</ele>
        <time>2022-05-26T14:39:45+02:00</time>
      </trkpt>
      <trkpt lat="42.85363" lon="-0.0169">
        <ele>1196</ele>
        <time>2022-05-26T14:40:09+02:00</time>
      </trkpt>
      <trkpt lat="42.85342" lon="-0.01678">
        <ele>1189</ele>
        <time>2022-05-26T14:40:26+02:00</time>
      </trkpt>
      <trkpt lat="42.85318" lon="-0.01673">
        <ele>1186</ele>
        <time>2022-05-26T14:40:40+02:00</time>
      </trkpt>
      <trkpt lat="42.85297" lon="-0.01663">
        <ele>1180</ele>
        <time>2022-05-26T14:41:02+02:00</time>
      </trkpt>
      <trkpt lat="42.85276" lon="-0.01649">
        <ele>1171</ele>
        <time>2022-05-26T14:41:21+02:00</time>
      </trkpt>
      <trkpt lat="42.85251" lon="-0.01652">
        <ele>1174</ele>
        <time>2022-05-26T14:41:43+02:00</time>
      </trkpt>
      <trkpt lat="42.85227" lon="-0.01642">
        <ele>1169</ele>
        <time>2022-05-26T14:41:57+02:00</time>
      </trkpt>
      <trkpt lat="42.85207" lon="-0.01627">
        <ele>1167</ele>
        <time>2022-05-26T14:42:33+02:00</time>
      </trkpt>
      <trkpt lat="42.85183" lon="-0.01618">
        <ele>1168</ele>
        <time>2022-05-26T14:42:47+02:00</time>
      </trkpt>
      <trkpt lat="42.8517" lon="-0.01592">
        <ele>1165</ele>
        <time>2022-05-26T14:43:18+02:00</time>
      </trkpt>
      <trkpt lat="42.8519" lon="-0.01577">
        <ele>1158</ele>
        <time>2022-05-26T14:43:44+02:00</time>
      </trkpt>
      <trkpt lat="42.85191" lon="-0.01545">
        <ele>1150</ele>
        <time>2022-05-26T14:44:13+02:00</time>
      </trkpt>
      <trkpt lat="42.85213" lon="-0.01533">
        <ele>1142</ele>
        <time>2022-05-26T14:45:26+02:00</time>
      </trkpt>
      <trkpt lat="42.85233" lon="-0.01548">
        <ele>1141</ele>
        <time>2022-05-26T14:45:41+02:00</time>
      </trkpt>
      <trkpt lat="42.85258" lon="-0.01549">
        <ele>1134</ele>
        <time>2022-05-26T14:46:02+02:00</time>
      </trkpt>
      <trkpt lat="42.85283" lon="-0.01559">
        <ele>1129</ele>
        <time>2022-05-26T14:46:20+02:00</time>
      </trkpt>
      <trkpt lat="42.85306" lon="-0.01552">
        <ele>1122</ele>
        <time>2022-05-26T14:46:37+02:00</time>
      </trkpt>
      <trkpt lat="42.8533" lon="-0.01546">
        <ele>1116</ele>
        <time>2022-05-26T14:46:52+02:00</time>
      </trkpt>
      <trkpt lat="42.85356" lon="-0.01543">
        <ele>1113</ele>
        <time>2022-05-26T14:47:20+02:00</time>
      </trkpt>
      <trkpt lat="42.85382" lon="-0.01539">
        <ele>1108</ele>
        <time>2022-05-26T14:47:34+02:00</time>
      </trkpt>
      <trkpt lat="42.85408" lon="-0.01543">
        <ele>1106</ele>
        <time>2022-05-26T14:47:57+02:00</time>
      </trkpt>
      <trkpt lat="42.85432" lon="-0.01543">
        <ele>1102</ele>
        <time>2022-05-26T14:48:13+02:00</time>
      </trkpt>
      <trkpt lat="42.85457" lon="-0.01547">
        <ele>1101</ele>
        <time>2022-05-26T14:48:28+02:00</time>
      </trkpt>
      <trkpt lat="42.85483" lon="-0.01553">
        <ele>1100</ele>
        <time>2022-05-26T14:48:48+02:00</time>
      </trkpt>
      <trkpt lat="42.85506" lon="-0.01564">
        <ele>1101</ele>
        <time>2022-05-26T14:49:05+02:00</time>
      </trkpt>
      <trkpt lat="42.85526" lon="-0.01579">
        <ele>1103</ele>
        <time>2022-05-26T14:49:24+02:00</time>
      </trkpt>
      <trkpt lat="42.85548" lon="-0.0159">
        <ele>1100</ele>
        <time>2022-05-26T14:49:45+02:00</time>
      </trkpt>
      <trkpt lat="42.85572" lon="-0.01586">
        <ele>1090</ele>
        <time>2022-05-26T14:50:04+02:00</time>
      </trkpt>
      <trkpt lat="42.8557" lon="-0.01554">
        <ele>1078</ele>
        <time>2022-05-26T14:50:43+02:00</time>
      </trkpt>
      <trkpt lat="42.85573" lon="-0.01522">
        <ele>1067</ele>
        <time>2022-05-26T14:51:09+02:00</time>
      </trkpt>
      <trkpt lat="42.85592" lon="-0.01505">
        <ele>1061</ele>
        <time>2022-05-26T14:51:46+02:00</time>
      </trkpt>
      <trkpt lat="42.85617" lon="-0.01504">
        <ele>1058</ele>
        <time>2022-05-26T14:52:02+02:00</time>
      </trkpt>
      <trkpt lat="42.8564" lon="-0.0151">
        <ele>1055</ele>
        <time>2022-05-26T14:52:16+02:00</time>
      </trkpt>
      <trkpt lat="42.85663" lon="-0.01522">
        <ele>1056</ele>
        <time>2022-05-26T14:52:33+02:00</time>
      </trkpt>
      <trkpt lat="42.85688" lon="-0.01515">
        <ele>1053</ele>
        <time>2022-05-26T14:52:48+02:00</time>
      </trkpt>
      <trkpt lat="42.85711" lon="-0.01507">
        <ele>1049</ele>
        <time>2022-05-26T14:53:06+02:00</time>
      </trkpt>
      <trkpt lat="42.8573" lon="-0.01523">
        <ele>1052</ele>
        <time>2022-05-26T14:53:23+02:00</time>
      </trkpt>
      <trkpt lat="42.85751" lon="-0.01543">
        <ele>1051</ele>
        <time>2022-05-26T14:53:44+02:00</time>
      </trkpt>
      <trkpt lat="42.85767" lon="-0.01519">
        <ele>1040</ele>
        <time>2022-05-26T14:54:38+02:00</time>
      </trkpt>
      <trkpt lat="42.8579" lon="-0.01509">
        <ele>1032</ele>
        <time>2022-05-26T14:54:53+02:00</time>
      </trkpt>
      <trkpt lat="42.85813" lon="-0.01502">
        <ele>1027</ele>
        <time>2022-05-26T14:55:09+02:00</time>
      </trkpt>
      <trkpt lat="42.85837" lon="-0.01504">
        <ele>1021</ele>
        <time>2022-05-26T14:55:32+02:00</time>
      </trkpt>
    </trkseg>
  </trk>
</gpx>